createdAt,value
2023-04-25T00:00:13.764Z,66.86
2023-04-25T00:02:43.956Z,67.13
2023-04-25T00:05:15.547Z,67.21
2023-04-25T00:07:45.855Z,67.29
2023-04-25T00:10:15.504Z,67.36
2023-04-25T00:12:46.491Z,67.47
2023-04-25T00:15:16.300Z,67.58
2023-04-25T00:17:46.900Z,67.61
2023-04-25T00:20:16.819Z,67.67
2023-04-25T00:22:46.522Z,67.71
2023-04-25T00:25:16.631Z,67.81
2023-04-25T00:27:46.257Z,68.07
2023-04-25T00:30:15.934Z,68.09
2023-04-25T00:32:45.800Z,68.42
2023-04-25T00:35:16.811Z,68.63
2023-04-25T00:37:46.129Z,68.81
2023-04-25T00:40:15.331Z,69.01
2023-04-25T00:42:44.238Z,69.22
2023-04-25T00:45:18.070Z,69.34
2023-04-25T00:47:48.269Z,69.43
2023-04-25T00:50:17.732Z,69.33
2023-04-25T00:52:47.500Z,69.34
2023-04-25T00:55:16.823Z,69.58
2023-04-25T00:57:46.060Z,69.76
2023-04-25T01:00:16.253Z,69.89
2023-04-25T01:02:47.172Z,70.07
2023-04-25T01:05:19.766Z,70.21
2023-04-25T01:07:49.746Z,70.30
2023-04-25T01:10:19.889Z,70.45
2023-04-25T01:12:52.161Z,70.70
2023-04-25T01:15:22.286Z,70.91
2023-04-25T01:17:51.493Z,70.91
2023-04-25T01:20:24.003Z,70.93
2023-04-25T01:22:54.396Z,70.94
2023-04-25T01:25:25.178Z,70.98
2023-04-25T01:27:54.841Z,71.10
2023-04-25T01:30:24.969Z,71.17
2023-04-25T01:32:57.038Z,71.22
2023-04-25T01:35:26.689Z,71.30
2023-04-25T01:38:00.327Z,71.19
2023-04-25T01:40:29.910Z,71.20
2023-04-25T01:43:00.866Z,71.21
2023-04-25T01:45:31.205Z,71.25
2023-04-25T01:48:01.064Z,71.31
2023-04-25T01:50:32.235Z,71.49
2023-04-25T01:53:02.703Z,71.58
2023-04-25T01:55:32.048Z,71.72
2023-04-25T01:58:05.860Z,71.96
2023-04-25T02:00:53.910Z,72.12
2023-04-25T02:03:23.605Z,72.38
2023-04-25T02:05:54.418Z,72.50
2023-04-25T02:08:26.498Z,72.56
2023-04-25T02:10:58.082Z,72.66
2023-04-25T02:13:30.472Z,72.81
2023-04-25T02:16:01.188Z,72.89
2023-04-25T02:18:31.144Z,72.94
2023-04-25T02:21:04.470Z,73.01
2023-04-25T02:23:33.600Z,73.04
2023-04-25T02:26:03.270Z,73.05
2023-04-25T02:28:32.460Z,72.98
2023-04-25T02:31:01.338Z,72.94
2023-04-25T02:33:30.700Z,73.03
2023-04-25T02:36:00.801Z,73.06
2023-04-25T02:38:30.667Z,73.04
2023-04-25T02:41:00.199Z,72.97
2023-04-25T02:43:30.287Z,72.88
2023-04-25T02:46:00.504Z,72.91
2023-04-25T02:48:30.199Z,73.04
2023-04-25T02:51:01.548Z,73.05
2023-04-25T02:53:32.399Z,73.00
2023-04-25T02:56:02.076Z,73.20
2023-04-25T02:58:33.054Z,73.27
2023-04-25T03:01:02.757Z,73.32
2023-04-25T03:03:33.756Z,73.27
2023-04-25T03:06:04.039Z,73.39
2023-04-25T03:08:35.389Z,73.50
2023-04-25T03:11:05.944Z,73.56
2023-04-25T03:13:36.945Z,73.67
2023-04-25T03:16:07.622Z,73.81
2023-04-25T03:18:37.641Z,73.85
2023-04-25T03:21:06.679Z,73.92
2023-04-25T03:23:36.142Z,73.92
2023-04-25T03:26:05.430Z,74.01
2023-04-25T03:28:35.079Z,74.07
2023-04-25T03:31:05.422Z,74.22
2023-04-25T03:33:34.397Z,74.21
2023-04-25T03:36:04.605Z,74.21
2023-04-25T03:38:34.117Z,74.19
2023-04-25T03:41:03.554Z,74.21
2023-04-25T03:43:47.472Z,74.23
2023-04-25T03:46:16.546Z,74.32
2023-04-25T03:48:46.113Z,74.39
2023-04-25T03:51:17.266Z,74.65
2023-04-25T03:53:47.596Z,74.57
2023-04-25T03:56:22.743Z,74.61
2023-04-25T03:58:53.720Z,74.67
2023-04-25T04:01:23.393Z,74.84
2023-04-25T04:03:52.665Z,74.81
2023-04-25T04:06:22.597Z,74.76
2023-04-25T04:08:53.662Z,74.77
2023-04-25T04:11:22.953Z,74.67
2023-04-25T04:13:53.422Z,74.59
2023-04-25T04:16:22.719Z,74.38
2023-04-25T04:18:52.852Z,74.13
2023-04-25T04:21:22.324Z,73.81
2023-04-25T04:23:52.541Z,73.59
2023-04-25T04:26:27.562Z,73.27
2023-04-25T04:29:00.104Z,72.83
2023-04-25T04:31:40.828Z,72.50
2023-04-25T04:34:10.248Z,72.03
2023-04-25T04:36:41.234Z,71.40
2023-04-25T04:39:11.637Z,70.95
2023-04-25T04:41:44.199Z,70.62
2023-04-25T04:44:18.527Z,70.26
2023-04-25T04:47:03.072Z,69.96
2023-04-25T04:49:52.064Z,69.54
2023-04-25T04:52:36.509Z,69.02
2023-04-25T04:55:09.251Z,68.40
2023-04-25T04:57:40.565Z,67.92
2023-04-25T05:00:19.169Z,67.49
2023-04-25T05:02:54.572Z,66.96
2023-04-25T05:05:32.653Z,66.70
2023-04-25T05:08:04.332Z,66.23
2023-04-25T05:41:14.000Z,60.32
2023-04-25T05:43:48.212Z,59.99
2023-04-25T05:46:44.004Z,60.11
2023-04-25T05:49:19.707Z,60.01
2023-04-25T05:52:03.688Z,60.07
2023-04-25T05:54:35.899Z,59.83
2023-04-25T05:57:05.729Z,59.58
2023-04-25T05:59:36.767Z,59.54
2023-04-25T06:02:07.961Z,59.07
2023-04-25T06:04:38.953Z,58.60
2023-04-25T06:07:08.656Z,58.32
2023-04-25T06:09:40.072Z,58.17
2023-04-25T06:12:10.674Z,57.76
2023-04-25T06:14:42.046Z,57.86
2023-04-25T06:17:12.201Z,57.94
2023-04-25T06:19:41.495Z,58.00
2023-04-25T06:22:12.221Z,57.67
2023-04-25T06:24:43.007Z,57.31
2023-04-25T06:27:12.695Z,56.51
2023-04-25T06:29:44.296Z,55.57
2023-04-25T06:32:13.542Z,55.57
2023-04-25T06:34:45.245Z,55.46
2023-04-25T06:37:14.546Z,55.00
2023-04-25T06:39:44.332Z,54.67
2023-04-25T06:42:13.716Z,53.14
2023-04-25T06:44:44.294Z,51.73
2023-04-25T07:00:54.541Z,43.04
2023-04-25T07:03:26.975Z,42.17
2023-04-25T07:05:59.306Z,41.61
2023-04-25T07:08:30.335Z,41.14
2023-04-25T07:11:01.834Z,40.28
2023-04-25T07:13:31.825Z,40.10
2023-04-25T07:16:01.448Z,38.87
2023-04-25T07:18:31.955Z,38.33
2023-04-25T07:21:02.666Z,37.39
2023-04-25T07:23:32.374Z,37.00
2023-04-25T07:26:02.915Z,36.38
2023-04-25T07:28:34.056Z,36.66
2023-04-25T07:31:03.348Z,35.51
2023-04-25T07:33:35.863Z,35.41
2023-04-25T07:36:05.748Z,35.32
2023-04-25T07:38:34.588Z,34.72
2023-04-25T07:41:04.633Z,34.99
2023-04-25T07:43:34.519Z,35.46
2023-04-25T07:46:04.623Z,34.78
2023-04-25T07:48:35.475Z,33.74
2023-04-25T07:51:05.826Z,33.74
2023-04-25T07:53:38.442Z,33.08
2023-04-25T07:56:10.401Z,32.64
2023-04-25T07:58:41.694Z,33.16
2023-04-25T08:01:13.017Z,33.31
2023-04-25T08:03:43.881Z,33.32
2023-04-25T08:06:17.266Z,34.04
2023-04-25T08:08:57.837Z,33.57
2023-04-25T08:11:28.628Z,32.91
2023-04-25T08:14:00.064Z,32.08
2023-04-25T08:16:31.137Z,31.77
2023-04-25T08:19:01.400Z,32.25
2023-04-25T08:21:32.202Z,30.52
2023-04-25T08:24:05.743Z,31.30
2023-04-25T08:26:38.150Z,30.93
2023-04-25T08:29:08.221Z,30.90
2023-04-25T08:31:38.903Z,30.81
2023-04-25T08:34:08.599Z,30.96
2023-04-25T08:36:40.981Z,30.43
2023-04-25T08:39:21.607Z,30.22
2023-04-25T08:41:53.481Z,30.60
2023-04-25T08:44:24.542Z,30.10
2023-04-25T08:46:54.042Z,30.51
2023-04-25T08:49:34.825Z,30.20
2023-04-25T08:52:07.103Z,30.43
2023-04-25T08:54:38.970Z,30.80
2023-04-25T08:57:10.110Z,30.34
2023-04-25T08:59:41.373Z,30.81
2023-04-25T09:02:12.822Z,30.77
2023-04-25T09:04:44.740Z,31.03
2023-04-25T09:07:16.201Z,30.87
2023-04-25T09:09:46.415Z,31.69
2023-04-25T09:12:19.585Z,31.81
2023-04-25T09:15:10.681Z,31.50
2023-04-25T09:17:58.704Z,31.45
2023-04-25T09:20:31.647Z,31.20
2023-04-25T09:23:06.207Z,31.96
2023-04-25T09:25:39.899Z,32.02
2023-04-25T09:28:10.724Z,31.46
2023-04-25T09:30:40.775Z,31.80
2023-04-25T09:33:12.385Z,31.99
2023-04-25T09:35:45.740Z,32.44
2023-04-25T09:38:22.579Z,32.04
2023-04-25T09:40:53.021Z,32.21
2023-04-25T09:43:25.698Z,32.76
2023-04-25T09:45:58.732Z,32.79
2023-04-25T09:48:29.668Z,33.21
2023-04-25T09:51:15.202Z,32.92
2023-04-25T09:53:49.919Z,33.10
2023-04-25T09:56:21.066Z,32.99
2023-04-25T09:58:52.903Z,33.04
2023-04-25T10:01:21.850Z,33.05
2023-04-25T10:03:53.333Z,32.48
2023-04-25T10:06:47.825Z,32.36
2023-04-25T10:09:19.248Z,32.36
2023-04-25T10:11:51.893Z,31.95
2023-04-25T10:14:21.342Z,31.53
2023-04-25T10:16:52.686Z,31.90
2023-04-25T10:19:23.729Z,32.14
2023-04-25T10:22:13.283Z,32.54
2023-04-25T10:24:43.284Z,32.60
2023-04-25T10:27:12.263Z,32.98
2023-04-25T10:29:42.948Z,33.20
2023-04-25T10:32:12.237Z,33.04
2023-04-25T10:34:47.186Z,32.67
2023-04-25T10:37:16.113Z,32.84
2023-04-25T10:39:47.656Z,32.82
2023-04-25T10:42:18.646Z,32.46
2023-04-25T10:45:05.232Z,32.46
2023-04-25T10:47:37.757Z,32.69
2023-04-25T10:50:09.221Z,32.61
2023-04-25T10:52:40.693Z,32.93
2023-04-25T10:55:10.986Z,32.85
2023-04-25T10:57:47.293Z,32.92
2023-04-25T11:00:25.674Z,33.00
2023-04-25T11:02:54.847Z,33.28
2023-04-25T11:05:38.491Z,33.38
2023-04-25T11:08:08.312Z,33.38
2023-04-25T11:10:37.315Z,33.27
2023-04-25T11:13:07.863Z,33.51
2023-04-25T11:15:37.406Z,33.36
2023-04-25T11:18:08.272Z,33.55
2023-04-25T11:20:38.603Z,33.55
2023-04-25T11:23:08.960Z,33.59
2023-04-25T11:25:39.042Z,33.41
2023-04-25T11:28:08.478Z,33.54
2023-04-25T11:30:37.248Z,33.42
2023-04-25T11:33:06.502Z,33.26
2023-04-25T11:35:35.469Z,33.28
2023-04-25T11:38:04.346Z,33.23
2023-04-25T11:40:37.702Z,33.30
2023-04-25T11:43:06.842Z,33.56
2023-04-25T11:45:36.077Z,33.31
2023-04-25T11:48:35.902Z,33.40
2023-04-25T11:51:05.869Z,33.14
2023-04-25T11:53:36.265Z,33.67
2023-04-25T11:56:13.716Z,33.95
2023-04-25T11:59:03.933Z,34.06
2023-04-25T12:01:39.474Z,33.97
2023-04-25T12:04:25.508Z,33.39
2023-04-25T12:06:57.275Z,33.55
2023-04-25T12:09:39.355Z,33.58
2023-04-25T12:12:15.055Z,33.66
2023-04-25T12:14:50.075Z,33.38
2023-04-25T12:17:19.827Z,33.51
2023-04-25T12:19:49.774Z,33.72
2023-04-25T12:22:24.517Z,33.98
2023-04-25T12:24:54.493Z,34.18
2023-04-25T12:27:23.531Z,33.68
2023-04-25T12:29:56.843Z,33.42
2023-04-25T12:32:27.139Z,33.85
2023-04-25T12:34:56.457Z,34.08
2023-04-25T12:37:27.951Z,34.14
2023-04-25T12:39:57.169Z,34.29
2023-04-25T12:42:25.872Z,34.29
2023-04-25T12:44:55.617Z,34.40
2023-04-25T12:47:25.089Z,34.40
2023-04-25T12:49:54.261Z,34.35
2023-04-25T12:52:24.647Z,34.00
2023-04-25T12:54:55.131Z,34.09
2023-04-25T12:57:24.159Z,34.06
2023-04-25T12:59:53.570Z,34.27
2023-04-25T13:02:25.315Z,34.06
2023-04-25T13:04:54.711Z,34.06
2023-04-25T13:07:24.084Z,33.90
2023-04-25T13:09:52.538Z,33.81
2023-04-25T13:12:21.509Z,33.67
2023-04-25T13:14:50.727Z,33.01
2023-04-25T13:17:20.102Z,33.31
2023-04-25T13:19:49.081Z,33.37
2023-04-25T13:22:20.414Z,33.39
2023-04-25T13:24:49.269Z,33.39
2023-04-25T13:27:18.404Z,32.77
2023-04-25T13:29:47.078Z,32.47
2023-04-25T13:32:17.190Z,32.29
2023-04-25T13:34:46.151Z,32.60
2023-04-25T13:37:15.002Z,32.80
2023-04-25T13:39:43.652Z,32.36
2023-04-25T13:42:12.298Z,32.58
2023-04-25T13:44:41.044Z,31.70
2023-04-25T13:47:09.701Z,32.03
2023-04-25T13:49:38.430Z,31.14
2023-04-25T13:52:07.118Z,30.57
2023-04-25T13:54:36.034Z,30.81
2023-04-25T13:57:04.831Z,30.87
2023-04-25T13:59:33.709Z,31.03
2023-04-25T14:02:03.507Z,30.80
2023-04-25T14:04:33.226Z,30.77
2023-04-25T14:07:03.122Z,30.84
2023-04-25T14:09:31.718Z,30.93
2023-04-25T14:12:01.788Z,30.56
2023-04-25T14:14:30.811Z,30.61
2023-04-25T14:17:00.880Z,30.75
2023-04-25T14:19:30.319Z,31.18
2023-04-25T14:22:00.257Z,31.47
2023-04-25T14:24:29.408Z,31.20
2023-04-25T14:26:58.171Z,31.04
2023-04-25T14:29:27.206Z,31.02
2023-04-25T14:31:57.955Z,30.81
2023-04-25T14:34:28.492Z,30.61
2023-04-25T14:36:57.062Z,30.58
2023-04-25T14:39:25.753Z,30.75
2023-04-25T14:41:54.614Z,30.89
2023-04-25T14:44:23.402Z,30.90
2023-04-25T14:46:52.645Z,31.02
2023-04-25T14:49:21.499Z,30.76
2023-04-25T14:51:52.140Z,30.65
2023-04-25T14:54:20.737Z,30.51
2023-04-25T14:56:49.716Z,30.49
2023-04-25T14:59:18.338Z,30.34
2023-04-25T15:01:50.196Z,30.38
2023-04-25T15:04:21.808Z,30.68
2023-04-25T15:06:50.918Z,30.92
2023-04-25T15:09:20.253Z,30.80
2023-04-25T15:11:49.146Z,30.81
2023-04-25T15:14:18.708Z,30.73
2023-04-25T15:16:49.632Z,30.92
2023-04-25T15:19:19.631Z,31.15
2023-04-25T15:21:48.939Z,31.31
2023-04-25T15:24:17.800Z,31.59
2023-04-25T15:26:46.971Z,31.59
2023-04-25T15:29:16.617Z,31.31
2023-04-25T15:31:45.808Z,30.90
2023-04-25T15:34:15.040Z,30.93
2023-04-25T15:36:44.101Z,30.72
2023-04-25T15:39:14.212Z,30.67
2023-04-25T15:41:43.456Z,30.46
2023-04-25T15:44:12.705Z,30.74
2023-04-25T15:46:44.116Z,31.12
2023-04-25T15:49:12.962Z,31.18
2023-04-25T15:51:41.891Z,31.22
2023-04-25T15:54:10.698Z,31.24
2023-04-25T15:56:41.015Z,31.28
2023-04-25T15:59:09.896Z,30.80
2023-04-25T16:01:40.182Z,30.95
2023-04-25T16:04:10.455Z,30.87
2023-04-25T16:06:42.389Z,30.86
2023-04-25T16:09:11.891Z,30.87
2023-04-25T16:11:42.293Z,30.87
2023-04-25T16:14:12.016Z,30.91
2023-04-25T16:16:41.900Z,31.00
2023-04-25T16:19:11.855Z,31.15
2023-04-25T16:21:42.323Z,31.22
2023-04-25T16:24:11.328Z,31.35
2023-04-25T16:26:42.848Z,31.61
2023-04-25T16:29:14.580Z,31.55
2023-04-25T16:31:47.586Z,31.57
2023-04-25T16:34:17.699Z,31.64
2023-04-25T16:36:47.342Z,31.44
2023-04-25T16:39:17.970Z,31.47
2023-04-25T16:41:48.388Z,31.46
2023-04-25T16:44:17.461Z,31.72
2023-04-25T16:46:47.841Z,32.23
2023-04-25T16:49:17.856Z,32.29
2023-04-25T16:51:46.914Z,32.54
2023-04-25T16:54:16.929Z,32.69
2023-04-25T16:56:48.087Z,32.96
2023-04-25T16:59:18.196Z,33.36
2023-04-25T17:01:48.423Z,33.58
2023-04-25T17:04:17.918Z,34.15
2023-04-25T17:06:48.505Z,34.41
2023-04-25T17:09:18.830Z,34.63
2023-04-25T17:11:49.288Z,35.16
2023-04-25T17:14:19.183Z,35.41
2023-04-25T17:16:49.709Z,35.62
2023-04-25T17:19:18.830Z,35.81
2023-04-25T17:21:48.967Z,36.03
2023-04-25T17:24:18.017Z,36.31
2023-04-25T17:26:48.941Z,36.68
2023-04-25T17:29:19.426Z,37.30
2023-04-25T17:31:49.688Z,37.74
2023-04-25T17:34:19.973Z,38.49
2023-04-25T17:36:49.726Z,38.84
2023-04-25T17:39:19.838Z,39.05
2023-04-25T17:41:48.771Z,39.08
2023-04-25T17:44:17.981Z,39.39
2023-04-25T17:46:47.985Z,39.49
2023-04-25T17:49:17.239Z,39.89
2023-04-25T17:51:47.976Z,40.25
2023-04-25T17:54:18.533Z,40.54
2023-04-25T17:56:48.129Z,40.77
2023-04-25T17:59:18.993Z,40.90
2023-04-25T18:01:50.567Z,40.96
2023-04-25T18:04:20.311Z,41.12
2023-04-25T18:06:50.085Z,41.28
2023-04-25T18:09:23.133Z,41.54
2023-04-25T18:11:53.163Z,41.92
2023-04-25T18:14:23.899Z,41.82
2023-04-25T18:16:56.676Z,41.88
2023-04-25T18:19:26.290Z,42.26
2023-04-25T18:21:55.672Z,42.26
2023-04-25T18:24:28.480Z,42.28
2023-04-25T18:26:59.165Z,42.67
2023-04-25T18:29:33.385Z,42.82
2023-04-25T18:32:00.186Z,43.13
2023-04-25T18:34:29.998Z,43.34
2023-04-25T18:37:00.126Z,43.50
2023-04-25T18:39:28.784Z,43.65
2023-04-25T18:42:01.519Z,43.97
2023-04-25T18:44:31.091Z,44.05
2023-04-25T18:47:01.368Z,44.11
2023-04-25T18:49:30.647Z,44.50
2023-04-25T18:52:01.042Z,44.87
2023-04-25T18:54:32.297Z,45.13
2023-04-25T18:57:02.332Z,45.40
2023-04-25T18:59:31.627Z,45.51
2023-04-25T19:02:02.092Z,45.90
2023-04-25T19:04:31.846Z,45.95
2023-04-25T19:07:01.677Z,45.98
2023-04-25T19:09:33.197Z,46.05
2023-04-25T19:12:03.559Z,46.17
2023-04-25T19:14:33.283Z,46.41
2023-04-25T19:17:02.547Z,46.60
2023-04-25T19:19:33.062Z,46.60
2023-04-25T19:22:02.489Z,46.64
2023-04-25T19:24:34.647Z,46.69
2023-04-25T19:27:05.308Z,46.98
2023-04-25T19:29:36.104Z,47.18
2023-04-25T19:32:06.595Z,47.45
2023-04-25T19:34:36.957Z,47.67
2023-04-25T19:37:06.779Z,47.95
2023-04-25T19:39:36.600Z,48.15
2023-04-25T19:42:06.641Z,48.36
2023-04-25T19:44:37.180Z,48.62
2023-04-25T19:47:06.588Z,48.82
2023-04-25T19:49:37.406Z,49.45
2023-04-25T19:52:06.885Z,49.71
2023-04-25T19:54:36.591Z,49.89
2023-04-25T19:57:06.604Z,50.22
2023-04-25T19:59:36.628Z,50.52
2023-04-25T20:02:09.149Z,50.68
2023-04-25T20:04:41.640Z,50.79
2023-04-25T20:07:11.145Z,50.93
2023-04-25T20:09:42.077Z,51.25
2023-04-25T20:12:12.458Z,51.56
2023-04-25T20:14:41.976Z,51.65
2023-04-25T20:17:12.001Z,51.69
2023-04-25T20:19:40.715Z,51.82
2023-04-25T20:22:11.341Z,51.90
2023-04-25T20:24:40.791Z,52.01
2023-04-25T20:27:09.706Z,51.99
2023-04-25T20:29:38.586Z,51.93
2023-04-25T20:32:08.207Z,52.21
2023-04-25T20:34:37.820Z,52.33
2023-04-25T20:37:09.070Z,52.19
2023-04-25T20:39:39.477Z,52.44
2023-04-25T20:42:09.186Z,52.72
2023-04-25T20:44:41.015Z,52.77
2023-04-25T20:47:10.689Z,53.25
2023-04-25T20:49:39.962Z,53.51
2023-04-25T20:52:09.381Z,53.53
2023-04-25T20:54:38.780Z,53.24
2023-04-25T20:57:08.994Z,53.29
2023-04-25T20:59:37.974Z,52.97
2023-04-25T21:02:08.718Z,52.74
2023-04-25T21:04:39.560Z,52.71
2023-04-25T21:07:08.263Z,52.68
2023-04-25T21:09:36.863Z,52.47
2023-04-25T21:12:06.705Z,52.35
2023-04-25T21:14:36.146Z,52.33
2023-04-25T21:17:06.146Z,52.61
2023-04-25T21:19:37.056Z,52.75
2023-04-25T21:22:06.983Z,52.98
2023-04-25T21:24:37.209Z,53.14
2023-04-25T21:27:06.637Z,53.04
2023-04-25T21:29:36.674Z,53.24
2023-04-25T21:32:07.722Z,53.08
2023-04-25T21:34:37.076Z,53.11
2023-04-25T21:37:06.128Z,53.29
2023-04-25T21:39:35.112Z,53.32
2023-04-25T21:42:07.095Z,53.73
2023-04-25T21:44:36.567Z,53.92
2023-04-25T21:47:06.122Z,53.94
2023-04-25T21:49:35.129Z,54.13
2023-04-25T21:52:05.579Z,54.05
2023-04-25T21:54:36.555Z,53.95
2023-04-25T21:57:06.917Z,54.09
2023-04-25T21:59:36.481Z,54.40
2023-04-25T22:02:06.303Z,54.37
2023-04-25T22:04:36.565Z,54.35
2023-04-25T22:07:06.256Z,54.38
2023-04-25T22:09:47.375Z,54.56
2023-04-25T22:12:09.580Z,54.67
2023-04-25T22:14:41.678Z,54.80
2023-04-25T22:17:11.996Z,54.79
2023-04-25T22:19:43.668Z,55.14
2023-04-25T22:22:13.966Z,55.47
2023-04-25T22:24:43.745Z,55.36
2023-04-25T22:27:12.990Z,55.71
2023-04-25T22:29:41.711Z,55.87
2023-04-25T22:32:10.760Z,55.92
2023-04-25T22:34:42.950Z,56.06
2023-04-25T22:37:13.328Z,56.20
2023-04-25T22:39:42.396Z,56.37
2023-04-25T22:42:11.556Z,56.31
2023-04-25T22:44:41.278Z,56.29
2023-04-25T22:47:10.395Z,56.29
2023-04-25T22:49:39.658Z,56.39
2023-04-25T22:52:09.485Z,56.36
2023-04-25T22:54:39.166Z,56.66
2023-04-25T22:57:10.076Z,56.99
2023-04-25T22:59:40.041Z,57.10
2023-04-25T23:02:09.039Z,57.03
2023-04-25T23:04:39.456Z,57.13
2023-04-25T23:07:08.173Z,57.20
2023-04-25T23:09:37.340Z,57.49
2023-04-25T23:12:07.913Z,57.66
2023-04-25T23:14:36.872Z,57.84
2023-04-25T23:17:08.705Z,58.22
2023-04-25T23:19:38.404Z,58.47
2023-04-25T23:22:08.336Z,58.75
2023-04-25T23:24:40.129Z,59.23
2023-04-25T23:27:10.024Z,59.47
2023-04-25T23:29:40.283Z,59.78
2023-04-25T23:32:09.374Z,60.11
2023-04-25T23:34:38.846Z,60.40
2023-04-25T23:37:08.542Z,60.74
2023-04-25T23:39:39.363Z,61.13
2023-04-25T23:42:09.629Z,61.47
2023-04-25T23:44:39.801Z,61.75
2023-04-25T23:47:09.450Z,62.06
2023-04-25T23:49:38.732Z,62.28
2023-04-25T23:52:10.121Z,62.60
2023-04-25T23:54:40.452Z,62.81
2023-04-25T23:57:09.628Z,63.08
2023-04-25T23:59:39.035Z,63.36
